Time;durP1;ratioP1;P1;durP2;ratioP2;P2;SDS_P1;SDS_P2;PMS_P1;PMS_P2;Temp;Humidity;BMP_temperature;BMP_pressure;BME280_temperature;BME280_humidity;BME280_pressure;Samples;Min_cycle;Max_cycle;Signal;HPM_P1;HPM_P2
2023/07/06 04:02:40;;;;;;;1.70;1.50;;;13.30;99.90;;;;;;4964765;28;20871;-71
2023/07/06 04:05:08;;;;;;;1.73;1.65;;;13.30;99.90;;;;;;4970477;28;20550;-72
2023/07/06 04:07:35;;;;;;;3.58;1.25;;;13.30;99.90;;;;;;4970805;28;20215;-73
2023/07/06 04:10:03;;;;;;;2.50;1.85;;;13.40;99.90;;;;;;4971365;28;20204;-73
2023/07/06 04:12:32;;;;;;;3.10;2.53;;;13.40;99.90;;;;;;4971401;28;20236;-73
2023/07/06 04:14:59;;;;;;;1.80;1.40;;;13.40;99.90;;;;;;4971775;28;20707;-74
2023/07/06 04:17:26;;;;;;;2.03;1.93;;;13.40;99.90;;;;;;4971065;28;20467;-74
2023/07/06 04:19:55;;;;;;;5.90;1.70;;;13.50;99.90;;;;;;4971018;28;20491;-73
2023/07/06 04:22:22;;;;;;;2.15;2.15;;;13.50;99.90;;;;;;4970912;28;20527;-72
2023/07/06 04:24:49;;;;;;;2.67;2.43;;;13.60;99.90;;;;;;4970906;28;20209;-72
2023/07/06 04:27:15;;;;;;;2.07;1.97;;;13.70;99.90;;;;;;4971523;28;20590;-72
2023/07/06 04:29:42;;;;;;;2.43;2.10;;;14.00;99.90;;;;;;4971354;28;20474;-72
2023/07/06 04:32:09;;;;;;;3.30;3.00;;;14.60;99.90;;;;;;4970822;28;20479;-72
2023/07/06 04:34:39;;;;;;;1.67;1.67;;;15.40;99.90;;;;;;4971979;28;20464;-72
2023/07/06 04:37:09;;;;;;;1.20;1.20;;;15.90;99.90;;;;;;4972038;28;20562;-73
2023/07/06 04:39:37;;;;;;;1.60;1.60;;;16.40;99.90;;;;;;4971939;28;20566;-72
2023/07/06 04:42:05;;;;;;;1.20;1.20;;;17.00;99.90;;;;;;4970195;28;20594;-72
2023/07/06 04:44:32;;;;;;;1.60;1.60;;;17.60;99.90;;;;;;4969492;28;20463;-72
2023/07/06 04:46:59;;;;;;;1.67;1.17;;;18.20;99.90;;;;;;4970564;28;20488;-72
2023/07/06 04:49:26;;;;;;;0.80;0.80;;;18.50;99.90;;;;;;4970558;28;20467;-72
2023/07/06 04:51:52;;;;;;;1.07;1.07;;;18.60;99.90;;;;;;4971091;28;20487;-72
2023/07/06 04:54:20;;;;;;;1.20;1.20;;;18.80;99.90;;;;;;4970359;28;20490;-73
2023/07/06 04:56:47;;;;;;;1.60;1.50;;;19.10;99.90;;;;;;4970967;28;20813;-72
2023/07/06 04:59:14;;;;;;;1.33;1.33;;;19.40;99.90;;;;;;4970806;28;20467;-72
2023/07/06 05:01:41;;;;;;;1.30;1.30;;;19.50;99.90;;;;;;4970774;28;20937;-72
2023/07/06 05:04:09;;;;;;;1.33;1.33;;;19.70;99.90;;;;;;4970792;28;20477;-72
2023/07/06 05:06:36;;;;;;;1.33;1.33;;;19.90;99.90;;;;;;4970724;28;20513;-72
2023/07/06 05:09:04;;;;;;;2.73;1.30;;;20.00;99.90;;;;;;4970092;28;20468;-72
2023/07/06 05:11:32;;;;;;;1.10;1.10;;;20.30;99.90;;;;;;4970151;28;20571;-72
2023/07/06 05:13:58;;;;;;;1.20;1.20;;;20.40;99.90;;;;;;4969800;28;20463;-72
2023/07/06 05:16:25;;;;;;;1.33;1.33;;;20.40;99.90;;;;;;4971170;28;20474;-72
2023/07/06 05:18:52;;;;;;;1.40;1.40;;;20.70;99.90;;;;;;4974126;28;20472;-72
2023/07/06 05:21:19;;;;;;;1.17;1.17;;;20.80;99.90;;;;;;4973987;28;20497;-72
2023/07/06 05:23:45;;;;;;;0.93;0.93;;;20.90;99.90;;;;;;4973844;28;20982;-71
2023/07/06 05:26:12;;;;;;;1.60;0.90;;;20.70;99.90;;;;;;4973809;28;20469;-72
2023/07/06 05:28:40;;;;;;;1.37;1.37;;;21.00;99.90;;;;;;4974244;28;20787;-72
2023/07/06 05:31:07;;;;;;;1.70;1.70;;;21.00;99.90;;;;;;4973561;28;20488;-72
2023/07/06 05:33:34;;;;;;;1.37;1.37;;;21.20;99.90;;;;;;4974440;28;20472;-72
2023/07/06 05:36:00;;;;;;;1.40;1.40;;;21.50;99.90;;;;;;4974408;28;20858;-72
2023/07/06 05:38:27;;;;;;;1.40;1.40;;;21.60;99.90;;;;;;4974342;28;20832;-71
2023/07/06 05:40:54;;;;;;;2.20;2.10;;;21.80;99.90;;;;;;4974236;28;20620;-72
2023/07/06 05:43:21;;;;;;;1.53;1.43;;;21.60;99.90;;;;;;4973957;28;20475;-72
2023/07/06 05:45:49;;;;;;;1.17;1.17;;;21.50;99.90;;;;;;4973823;28;20480;-71
2023/07/06 05:48:18;;;;;;;1.00;1.00;;;21.50;99.90;;;;;;4973396;28;20473;-71
2023/07/06 05:50:44;;;;;;;1.30;1.30;;;21.50;99.90;;;;;;4974404;28;20679;-71
2023/07/06 05:53:12;;;;;;;1.10;1.10;;;21.50;99.90;;;;;;4973864;28;20460;-71
2023/07/06 05:55:43;;;;;;;0.80;0.80;;;21.50;99.90;;;;;;4974059;28;20533;-71
2023/07/06 05:58:10;;;;;;;3.17;1.17;;;21.50;99.90;;;;;;4973958;28;20466;-72
2023/07/06 06:00:41;;;;;;;1.03;1.03;;;21.50;99.90;;;;;;4974287;28;20609;-71
2023/07/06 06:03:11;;;;;;;1.20;1.20;;;21.80;99.90;;;;;;4973257;28;20999;-71
2023/07/06 06:05:39;;;;;;;1.50;1.50;;;22.00;99.90;;;;;;4973680;28;20461;-71
2023/07/06 06:08:06;;;;;;;1.23;1.23;;;22.30;99.90;;;;;;4973090;28;20474;-73
2023/07/06 06:10:33;;;;;;;1.47;1.47;;;22.40;99.90;;;;;;4973442;28;20509;-71
2023/07/06 06:13:00;;;;;;;1.30;1.30;;;22.60;99.90;;;;;;4973416;28;20530;-71
2023/07/06 06:15:27;;;;;;;1.00;1.00;;;22.60;99.90;;;;;;4973369;28;20860;-71
2023/07/06 06:17:54;;;;;;;0.90;0.90;;;22.60;99.90;;;;;;4972576;28;21000;-71
2023/07/06 06:20:22;;;;;;;2.73;1.30;;;22.70;99.90;;;;;;4973234;28;20474;-72
2023/07/06 06:22:49;;;;;;;0.90;0.90;;;22.90;99.90;;;;;;4972576;28;20492;-72
2023/07/06 06:25:16;;;;;;;1.03;1.03;;;23.20;99.90;;;;;;4973562;28;20464;-71
2023/07/06 06:27:44;;;;;;;1.20;1.10;;;23.40;99.90;;;;;;4973165;28;20474;-71
2023/07/06 06:30:12;;;;;;;1.20;1.20;;;23.70;99.90;;;;;;4973304;28;20563;-71
2023/07/06 06:32:39;;;;;;;0.83;0.83;;;24.20;99.90;;;;;;4972720;28;20559;-72
2023/07/06 06:35:21;;;;;;;1.30;1.30;;;24.50;99.90;;;;;;4973153;28;20579;-71
2023/07/06 06:37:49;;;;;;;0.80;0.80;;;24.70;99.90;;;;;;4972876;28;20499;-72
2023/07/06 06:40:16;;;;;;;1.60;1.10;;;25.20;99.90;;;;;;4972837;28;20955;-71
2023/07/06 06:42:43;;;;;;;0.87;0.87;;;24.90;99.90;;;;;;4973186;28;20856;-71
2023/07/06 06:45:10;;;;;;;0.77;0.77;;;24.80;99.90;;;;;;4972698;28;20839;-71
2023/07/06 06:47:37;;;;;;;2.10;1.27;;;24.70;99.90;;;;;;4972642;28;20476;-72
2023/07/06 06:50:04;;;;;;;0.80;0.80;;;24.70;99.90;;;;;;4973011;28;20592;-71
2023/07/06 06:52:32;;;;;;;0.60;0.60;;;24.80;99.90;;;;;;4972644;28;21004;-71
2023/07/06 06:55:00;;;;;;;1.40;1.30;;;25.10;99.90;;;;;;4972735;28;20542;-71
2023/07/06 06:57:27;;;;;;;0.70;0.70;;;25.00;99.90;;;;;;4972654;28;20474;-71
2023/07/06 06:59:54;;;;;;;1.83;1.13;;;24.90;99.90;;;;;;4972815;28;20463;-71
2023/07/06 07:02:22;;;;;;;0.70;0.70;;;23.90;99.90;;;;;;4971704;28;20495;-71
2023/07/06 07:04:49;;;;;;;0.93;0.80;;;23.70;99.90;;;;;;4972316;28;20466;-71
2023/07/06 07:07:16;;;;;;;0.70;0.70;;;24.60;99.90;;;;;;4972634;28;20552;-71
2023/07/06 07:09:44;;;;;;;1.43;1.33;;;25.00;99.90;;;;;;4972282;28;20534;-71
2023/07/06 07:12:13;;;;;;;0.70;0.70;;;25.10;99.90;;;;;;4972609;28;20480;-71
2023/07/06 07:14:39;;;;;;;0.80;0.80;;;25.10;99.90;;;;;;4972507;28;20496;-71
2023/07/06 07:17:07;;;;;;;0.60;0.60;;;25.10;99.90;;;;;;4971845;28;20467;-70
2023/07/06 07:19:34;;;;;;;1.20;1.07;;;25.20;99.90;;;;;;4972037;28;20559;-69
2023/07/06 07:22:00;;;;;;;1.20;1.20;;;25.70;99.90;;;;;;4971945;28;20570;-70
2023/07/06 07:24:29;;;;;;;0.33;0.33;;;26.10;99.90;;;;;;4971501;28;20972;-70
2023/07/06 07:26:57;;;;;;;0.80;0.80;;;26.40;99.90;;;;;;4971888;28;20819;-70
2023/07/06 07:29:25;;;;;;;0.70;0.70;;;26.80;99.90;;;;;;4972008;28;20468;-70
2023/07/06 07:31:52;;;;;;;3.70;1.00;;;26.30;99.90;;;;;;4971725;28;20483;-70
2023/07/06 07:34:18;;;;;;;1.17;0.53;;;26.20;99.90;;;;;;4972386;28;20472;-70
2023/07/06 07:36:46;;;;;;;0.77;0.77;;;26.30;99.90;;;;;;4971878;28;20940;-71
2023/07/06 07:39:14;;;;;;;0.70;0.70;;;26.50;99.90;;;;;;4971135;28;20464;-70
2023/07/06 07:41:42;;;;;;;0.40;0.40;;;26.40;99.90;;;;;;4972023;28;20487;-70
2023/07/06 07:44:09;;;;;;;0.50;0.50;;;26.70;99.90;;;;;;4971424;28;20500;-70
2023/07/06 07:46:37;;;;;;;0.73;0.73;;;26.70;99.90;;;;;;4971288;28;20476;-70
2023/07/06 07:49:04;;;;;;;0.50;0.50;;;26.10;99.90;;;;;;4971860;28;20482;-70
2023/07/06 07:51:31;;;;;;;0.70;0.70;;;25.80;99.90;;;;;;4971883;28;20491;-70
2023/07/06 07:53:58;;;;;;;0.80;0.80;;;24.80;99.90;;;;;;4971212;28;20908;-70
2023/07/06 07:56:27;;;;;;;0.70;0.60;;;23.90;99.90;;;;;;4971649;28;20479;-70
2023/07/06 07:58:54;;;;;;;0.90;0.90;;;23.90;99.90;;;;;;4971386;28;20473;-70
2023/07/06 08:01:23;;;;;;;1.47;1.10;;;24.40;99.90;;;;;;4971220;28;20491;-70
2023/07/06 08:03:52;;;;;;;0.70;0.70;;;24.60;99.90;;;;;;4971621;28;20491;-70
2023/07/06 08:06:19;;;;;;;0.60;0.60;;;24.30;99.90;;;;;;4971623;28;20481;-70
2023/07/06 08:08:47;;;;;;;0.80;0.80;;;24.40;99.90;;;;;;4971302;28;20471;-71
2023/07/06 08:11:16;;;;;;;0.77;0.77;;;23.90;99.90;;;;;;4971275;28;20495;-71
2023/07/06 08:13:45;;;;;;;2.10;0.93;;;23.50;99.90;;;;;;4971560;28;20467;-71
2023/07/06 08:16:12;;;;;;;0.60;0.60;;;23.50;99.90;;;;;;4971558;28;20479;-71
2023/07/06 08:18:41;;;;;;;0.87;0.63;;;23.90;99.90;;;;;;4972112;28;20492;-71
2023/07/06 08:21:10;;;;;;;0.70;0.70;;;24.00;99.90;;;;;;4973135;28;20685;-72
2023/07/06 08:23:40;;;;;;;0.80;0.80;;;24.20;99.90;;;;;;4971794;28;20490;-72
2023/07/06 08:26:10;;;;;;;0.60;0.60;;;24.00;99.90;;;;;;4971399;28;20505;-71
2023/07/06 08:28:36;;;;;;;0.50;0.50;;;24.00;99.90;;;;;;4971549;28;20525;-71
2023/07/06 08:31:03;;;;;;;0.73;0.73;;;24.20;99.90;;;;;;4970946;28;20514;-71
2023/07/06 08:33:32;;;;;;;1.07;0.80;;;24.50;99.90;;;;;;4971612;28;20470;-71
2023/07/06 08:36:00;;;;;;;0.43;0.43;;;25.10;99.90;;;;;;4970735;28;20475;-71
2023/07/06 08:38:28;;;;;;;0.80;0.80;;;24.80;99.90;;;;;;4970714;28;20563;-71
2023/07/06 08:40:55;;;;;;;0.60;0.60;;;24.60;99.90;;;;;;4971216;28;20514;-71
2023/07/06 08:43:24;;;;;;;0.40;0.40;;;25.00;99.90;;;;;;4970841;28;20492;-72
2023/07/06 08:45:56;;;;;;;0.50;0.50;;;24.80;99.90;;;;;;4970687;28;20554;-71
2023/07/06 08:48:25;;;;;;;0.63;0.63;;;24.70;99.90;;;;;;4971295;28;20483;-70
2023/07/06 08:50:56;;;;;;;0.63;0.63;;;24.80;99.90;;;;;;4971476;28;20839;-70
2023/07/06 08:53:29;;;;;;;0.33;0.33;;;24.70;99.90;;;;;;4974527;28;20478;-69
2023/07/06 08:55:59;;;;;;;0.50;0.50;;;24.20;99.90;;;;;;4976648;28;20774;-70
2023/07/06 08:58:28;;;;;;;0.60;0.60;;;24.30;99.90;;;;;;4975850;28;20476;-69
2023/07/06 09:01:00;;;;;;;0.50;0.50;;;24.50;99.90;;;;;;4975478;28;20495;-70
2023/07/06 09:03:28;;;;;;;1.40;0.50;;;24.70;99.90;;;;;;4975611;28;20487;-70
2023/07/06 09:05:56;;;;;;;0.60;0.60;;;25.00;99.90;;;;;;4975555;28;20470;-70
2023/07/06 09:08:24;;;;;;;0.50;0.50;;;25.20;99.90;;;;;;4976992;28;20469;-71
2023/07/06 09:10:52;;;;;;;0.50;0.50;;;24.60;99.90;;;;;;4978620;28;20487;-71
2023/07/06 09:13:24;;;;;;;0.80;0.80;;;24.20;99.90;;;;;;4979523;28;20574;-70
2023/07/06 09:15:56;;;;;;;1.27;0.70;;;23.70;99.90;;;;;;4979669;28;20464;-70
2023/07/06 09:18:23;;;;;;;0.70;0.70;;;23.00;99.90;;;;;;4978089;28;20464;-70
2023/07/06 09:20:51;;;;;;;0.73;0.73;;;22.50;99.90;;;;;;4982592;28;20506;-71
2023/07/06 09:23:18;;;;;;;0.30;0.30;;;22.30;99.90;;;;;;4980620;28;20491;-71
2023/07/06 09:25:47;;;;;;;1.53;0.70;;;21.90;99.90;;;;;;4976603;28;20512;-71
2023/07/06 09:28:18;;;;;;;0.97;0.97;;;21.70;99.90;;;;;;4975830;28;20479;-70
2023/07/06 09:30:45;;;;;;;0.53;0.53;;;21.90;99.90;;;;;;4976165;28;20484;-71
2023/07/06 09:33:18;;;;;;;0.63;0.63;;;22.30;99.90;;;;;;4974891;28;20500;-71
2023/07/06 09:35:45;;;;;;;5.00;1.20;;;22.30;99.90;;;;;;4975045;28;20857;-71
2023/07/06 09:38:13;;;;;;;0.60;0.60;;;22.10;99.90;;;;;;4975086;28;20816;-71
2023/07/06 09:40:43;;;;;;;0.43;0.43;;;21.90;99.90;;;;;;4975088;28;20835;-71
2023/07/06 09:43:22;;;;;;;0.77;0.77;;;21.70;99.90;;;;;;4973904;28;20906;-70
2023/07/06 09:45:51;;;;;;;0.77;0.77;;;21.60;99.90;;;;;;4974865;28;20551;-71
2023/07/06 09:48:29;;;;;;;0.70;0.70;;;21.50;99.90;;;;;;4974042;28;20496;-70
2023/07/06 09:51:01;;;;;;;0.70;0.70;;;21.40;99.90;;;;;;4974263;28;20490;-71
2023/07/06 09:53:33;;;;;;;0.90;0.90;;;21.30;99.90;;;;;;4974909;28;20550;-71
2023/07/06 09:55:59;;;;;;;0.70;0.70;;;21.30;99.90;;;;;;4973930;28;20482;-72
2023/07/06 09:58:30;;;;;;;0.50;0.50;;;21.40;99.90;;;;;;4974345;28;20463;-71
2023/07/06 10:01:01;;;;;;;0.83;0.83;;;21.60;99.90;;;;;;4974360;28;20498;-71
2023/07/06 10:03:37;;;;;;;0.80;0.80;;;21.70;99.90;;;;;;4975860;28;20498;-71
2023/07/06 10:06:15;;;;;;;0.30;0.30;;;21.70;99.90;;;;;;4974946;28;20565;-71
2023/07/06 10:08:49;;;;;;;0.83;0.83;;;21.80;99.90;;;;;;4973798;28;20791;-70
2023/07/06 10:11:24;;;;;;;0.87;0.87;;;22.00;99.90;;;;;;4974074;28;20493;-70
2023/07/06 10:13:59;;;;;;;0.83;0.83;;;22.00;99.90;;;;;;4999752;23;20460;-68
2023/07/06 10:16:37;;;;;;;1.10;1.10;;;22.00;99.90;;;;;;4992756;28;20471;-69
2023/07/06 10:19:11;;;;;;;0.83;0.83;;;22.00;99.90;;;;;;4993072;28;20477;-69
2023/07/06 10:21:43;;;;;;;0.87;0.87;;;21.90;99.90;;;;;;4993155;28;20764;-69
2023/07/06 10:24:17;;;;;;;0.97;0.97;;;21.70;99.90;;;;;;4992291;28;20497;-68
2023/07/06 10:26:48;;;;;;;0.63;0.63;;;21.70;99.90;;;;;;4992701;28;20469;-71
2023/07/06 10:29:30;;;;;;;2.17;1.03;;;21.70;99.90;;;;;;4993353;28;20824;-69
2023/07/06 10:32:04;;;;;;;0.63;0.63;;;21.90;99.90;;;;;;4992429;28;20488;-69
2023/07/06 10:34:38;;;;;;;1.00;1.00;;;22.10;99.90;;;;;;4992837;28;20816;-69
2023/07/06 10:37:06;;;;;;;1.33;0.60;;;22.10;99.90;;;;;;4992492;28;20474;-69
2023/07/06 10:40:04;;;;;;;0.70;0.70;;;22.20;99.90;;;;;;4991803;28;20951;-69
2023/07/06 10:42:32;;;;;;;0.60;0.60;;;22.10;99.90;;;;;;4994952;28;20469;-69
2023/07/06 10:45:02;;;;;;;0.73;0.73;;;22.10;99.90;;;;;;5011848;28;20481;-69
2023/07/06 10:47:40;;;;;;;1.70;0.90;;;21.90;99.90;;;;;;5011549;28;20470;-70
2023/07/06 10:50:25;;;;;;;0.83;0.83;;;21.70;99.90;;;;;;5012176;28;20465;-69
2023/07/06 10:53:09;;;;;;;0.90;0.90;;;21.60;99.90;;;;;;5011744;28;20473;-69
2023/07/06 10:55:37;;;;;;;0.93;0.90;;;21.60;99.90;;;;;;5011672;28;20495;-68
2023/07/06 10:58:25;;;;;;;0.63;0.63;;;21.70;99.90;;;;;;5012073;28;20477;-69
2023/07/06 11:00:54;;;;;;;0.80;0.80;;;22.00;99.90;;;;;;5011792;28;20546;-69
2023/07/06 11:03:28;;;;;;;0.70;0.70;;;22.10;99.90;;;;;;5011872;28;20486;-68
2023/07/06 11:06:05;;;;;;;1.07;1.07;;;22.10;99.90;;;;;;5011386;28;20517;-68
2023/07/06 11:09:11;;;;;;;0.70;0.70;;;22.10;99.90;;;;;;5011153;28;20473;-68
2023/07/06 11:11:40;;;;;;;0.80;0.80;;;22.10;99.90;;;;;;5011479;28;20952;-68
2023/07/06 11:14:31;;;;;;;0.50;0.50;;;22.00;99.90;;;;;;5010217;28;20536;-67
2023/07/06 11:17:04;;;;;;;0.80;0.80;;;22.00;99.90;;;;;;5007864;28;20573;-67
2023/07/06 11:19:35;;;;;;;0.83;0.83;;;21.90;99.90;;;;;;5011639;28;20879;-67
2023/07/06 11:22:06;;;;;;;0.60;0.60;;;21.80;99.90;;;;;;5011435;28;20461;-68
2023/07/06 11:24:38;;;;;;;0.90;0.90;;;21.70;99.90;;;;;;5010742;28;20847;-67
2023/07/06 11:27:22;;;;;;;0.83;0.83;;;21.80;99.90;;;;;;5011200;28;20530;-67
2023/07/06 11:29:49;;;;;;;0.50;0.50;;;21.80;99.90;;;;;;5011392;28;20616;-67
2023/07/06 11:32:27;;;;;;;0.87;0.87;;;21.90;99.90;;;;;;5011101;28;20460;-69
2023/07/06 11:35:11;;;;;;;2.13;1.27;;;21.80;99.90;;;;;;5011003;28;20490;-68
2023/07/06 11:37:54;;;;;;;1.17;1.17;;;21.80;99.90;;;;;;5010491;28;20472;-69
2023/07/06 11:40:41;;;;;;;0.93;0.93;;;21.70;99.90;;;;;;5011699;28;20466;-68
2023/07/06 11:43:26;;;;;;;1.13;0.93;;;21.50;99.90;;;;;;5000972;28;20862;-69
2023/07/06 11:46:01;;;;;;;1.37;1.13;;;21.30;99.90;;;;;;4990863;28;20485;-69
2023/07/06 11:48:37;;;;;;;1.30;1.30;;;21.20;99.90;;;;;;4991305;28;20978;-69
2023/07/06 11:51:05;;;;;;;0.90;0.90;;;21.20;99.90;;;;;;4991548;28;20957;-69
2023/07/06 11:53:42;;;;;;;0.83;0.83;;;21.30;99.90;;;;;;4990921;28;20465;-69
2023/07/06 11:56:39;;;;;;;1.37;0.87;;;21.20;99.90;;;;;;4990910;28;20565;-69
2023/07/06 11:59:15;;;;;;;4.13;1.30;;;21.00;99.90;;;;;;4991139;28;20500;-69
2023/07/06 12:01:45;;;;;;;3.43;1.03;;;20.90;99.90;;;;;;4990733;28;20464;-69
2023/07/06 12:04:18;;;;;;;1.77;1.00;;;20.80;99.90;;;;;;4991495;28;20497;-69
2023/07/06 12:06:45;;;;;;;0.93;0.93;;;20.90;99.90;;;;;;4991517;28;20472;-69
2023/07/06 12:09:18;;;;;;;1.33;1.33;;;21.10;99.90;;;;;;4990741;28;20885;-69
2023/07/06 12:11:46;;;;;;;1.17;1.07;;;21.20;99.90;;;;;;4991331;28;20585;-69
2023/07/06 12:14:20;;;;;;;0.70;0.70;;;21.30;99.90;;;;;;4990957;28;20493;-69
2023/07/06 12:16:49;;;;;;;0.87;0.87;;;21.30;99.90;;;;;;4990684;28;20470;-69
2023/07/06 12:19:18;;;;;;;1.10;1.10;;;21.50;99.90;;;;;;4991174;28;20930;-68
2023/07/06 12:21:50;;;;;;;0.80;0.80;;;21.40;99.90;;;;;;4991097;28;20470;-69
2023/07/06 12:24:21;;;;;;;1.10;1.10;;;21.50;99.90;;;;;;4990729;28;20497;-69
2023/07/06 12:26:51;;;;;;;1.33;0.60;;;21.70;99.90;;;;;;4991408;28;20476;-67
2023/07/06 12:29:23;;;;;;;1.10;1.10;;;21.70;99.90;;;;;;4991296;28;20476;-68
2023/07/06 12:31:52;;;;;;;0.60;0.60;;;22.00;99.90;;;;;;4990511;28;20917;-68
2023/07/06 12:34:26;;;;;;;0.90;0.90;;;22.20;99.90;;;;;;4990852;28;20975;-68
2023/07/06 12:36:56;;;;;;;0.80;0.80;;;22.20;99.90;;;;;;4990797;28;20478;-68
2023/07/06 12:39:23;;;;;;;0.90;0.90;;;22.30;99.90;;;;;;4990620;28;20474;-68
2023/07/06 12:41:53;;;;;;;0.43;0.43;;;22.50;99.90;;;;;;4991282;28;20960;-68
2023/07/06 12:44:24;;;;;;;0.40;0.40;;;22.60;99.90;;;;;;4983285;28;20487;-68
2023/07/06 12:46:52;;;;;;;0.60;0.60;;;22.50;99.90;;;;;;4990151;28;20769;-67
2023/07/06 12:49:22;;;;;;;0.70;0.70;;;22.60;99.90;;;;;;4990849;28;20475;-68
2023/07/06 12:51:54;;;;;;;0.63;0.63;;;22.70;99.90;;;;;;4991218;28;20664;-70
2023/07/06 12:54:29;;;;;;;0.50;0.50;;;22.70;99.90;;;;;;4990611;28;20577;-69
2023/07/06 12:56:59;;;;;;;0.90;0.50;;;22.80;99.90;;;;;;4990403;28;20598;-67
2023/07/06 12:59:26;;;;;;;0.60;0.60;;;22.60;99.90;;;;;;4990761;28;20470;-68
2023/07/06 13:01:53;;;;;;;1.20;1.20;;;22.50;99.90;;;;;;4990295;28;20474;-67
2023/07/06 13:04:21;;;;;;;0.90;0.90;;;22.40;99.90;;;;;;4990144;28;20495;-68
2023/07/06 13:06:52;;;;;;;0.90;0.60;;;22.30;99.90;;;;;;4990175;28;20468;-69
2023/07/06 13:09:21;;;;;;;0.77;0.77;;;22.30;99.90;;;;;;4989864;28;20493;-68
2023/07/06 13:11:52;;;;;;;1.60;1.10;;;22.30;99.90;;;;;;4990445;28;20477;-68
2023/07/06 13:14:20;;;;;;;1.07;1.07;;;22.20;99.90;;;;;;4990148;28;20491;-68
2023/07/06 13:16:53;;;;;;;1.40;1.30;;;22.30;99.90;;;;;;4989619;28;20839;-68
2023/07/06 13:19:23;;;;;;;1.33;1.33;;;22.40;99.90;;;;;;4990237;28;20467;-68
2023/07/06 13:21:51;;;;;;;3.60;0.90;;;22.20;99.90;;;;;;4990614;28;20466;-68
2023/07/06 13:24:21;;;;;;;0.80;0.80;;;22.10;99.90;;;;;;4989627;28;20505;-68
2023/07/06 13:26:48;;;;;;;0.70;0.70;;;22.10;99.90;;;;;;4990160;28;20467;-68
2023/07/06 13:29:16;;;;;;;1.07;1.07;;;22.10;99.90;;;;;;4990370;28;20466;-68
2023/07/06 13:31:44;;;;;;;0.90;0.90;;;22.10;99.90;;;;;;4989775;28;20470;-68
2023/07/06 13:34:12;;;;;;;0.83;0.83;;;22.30;99.90;;;;;;4989769;28;20861;-68
2023/07/06 13:36:41;;;;;;;2.00;1.00;;;22.40;99.90;;;;;;4989816;28;20467;-68
2023/07/06 13:39:10;;;;;;;0.93;0.93;;;22.60;99.90;;;;;;4993633;28;20466;-69
2023/07/06 13:41:38;;;;;;;0.83;0.83;;;22.70;99.90;;;;;;4994090;28;20491;-68
2023/07/06 13:44:06;;;;;;;0.77;0.77;;;22.70;99.90;;;;;;4995815;28;20866;-68
2023/07/06 13:46:34;;;;;;;0.97;0.80;;;22.80;99.90;;;;;;5012842;28;20459;-69
2023/07/06 13:49:01;;;;;;;1.27;1.13;;;22.80;99.90;;;;;;5013502;28;20969;-69
2023/07/06 13:51:28;;;;;;;2.00;1.10;;;22.90;99.90;;;;;;5013533;28;20473;-69
2023/07/06 13:53:56;;;;;;;0.60;0.60;;;22.90;99.90;;;;;;5012601;28;20537;-69
2023/07/06 13:56:26;;;;;;;1.33;1.20;;;23.10;99.90;;;;;;5013843;28;20547;-69
2023/07/06 13:58:53;;;;;;;1.00;1.00;;;23.10;99.90;;;;;;5013368;28;20963;-70
2023/07/06 14:01:21;;;;;;;0.93;0.93;;;23.20;99.90;;;;;;5012895;28;20463;-69
2023/07/06 14:03:48;;;;;;;0.73;0.73;;;23.30;99.90;;;;;;5013508;28;20535;-69
2023/07/06 14:06:17;;;;;;;0.97;0.97;;;23.40;99.90;;;;;;5013286;28;20471;-69
2023/07/06 14:08:44;;;;;;;0.90;0.90;;;23.20;99.90;;;;;;5013268;28;20991;-68
2023/07/06 14:11:14;;;;;;;1.20;1.20;;;23.30;99.90;;;;;;5013018;28;20933;-68
2023/07/06 14:13:41;;;;;;;0.90;0.90;;;23.40;99.90;;;;;;5013014;28;20470;-69
2023/07/06 14:16:09;;;;;;;0.80;0.80;;;23.30;99.90;;;;;;5012118;28;20462;-69
2023/07/06 14:18:36;;;;;;;1.10;1.10;;;23.30;99.90;;;;;;5013120;28;20469;-68
2023/07/06 14:21:05;;;;;;;0.70;0.70;;;23.40;99.90;;;;;;5013020;28;20807;-68
2023/07/06 14:23:33;;;;;;;1.00;1.00;;;23.50;99.90;;;;;;5012336;28;20467;-68
2023/07/06 14:26:01;;;;;;;0.80;0.80;;;23.60;99.90;;;;;;5012519;28;20459;-68
2023/07/06 14:28:30;;;;;;;0.80;0.80;;;23.50;99.90;;;;;;5012949;28;20463;-70
2023/07/06 14:31:02;;;;;;;0.97;0.97;;;23.30;99.90;;;;;;5012762;28;20470;-68
2023/07/06 14:33:29;;;;;;;0.77;0.77;;;23.10;99.90;;;;;;5012601;28;20525;-68
2023/07/06 14:35:55;;;;;;;1.07;1.07;;;23.30;99.90;;;;;;5011905;28;20582;-69
2023/07/06 14:38:23;;;;;;;0.90;0.90;;;23.40;99.90;;;;;;5012012;28;20557;-68
2023/07/06 14:40:50;;;;;;;1.40;1.40;;;23.40;99.90;;;;;;5012365;28;20613;-70
2023/07/06 14:43:16;;;;;;;1.13;0.77;;;23.50;99.90;;;;;;4999775;28;20467;-68
2023/07/06 14:45:45;;;;;;;1.73;0.97;;;23.70;99.90;;;;;;4995958;28;20855;-68
2023/07/06 14:48:12;;;;;;;0.90;0.53;;;23.80;99.90;;;;;;4992424;28;20474;-69
2023/07/06 14:50:39;;;;;;;3.27;0.97;;;23.80;99.90;;;;;;4992574;28;20937;-68
2023/07/06 14:53:07;;;;;;;1.20;1.20;;;23.90;99.90;;;;;;4992460;28;20462;-69
2023/07/06 14:55:34;;;;;;;1.47;1.00;;;23.90;99.90;;;;;;4992559;28;20482;-69
2023/07/06 14:58:01;;;;;;;0.90;0.83;;;23.80;99.90;;;;;;4992320;28;20474;-68
2023/07/06 15:00:28;;;;;;;0.60;0.60;;;23.60;99.90;;;;;;4992603;28;20473;-68
2023/07/06 15:02:56;;;;;;;1.17;0.60;;;23.60;99.90;;;;;;4992223;28;20466;-68
2023/07/06 15:05:23;;;;;;;1.17;1.17;;;23.60;99.90;;;;;;4992197;28;20503;-68
2023/07/06 15:07:49;;;;;;;0.83;0.83;;;23.60;99.90;;;;;;4991869;28;20459;-68
2023/07/06 15:10:16;;;;;;;1.40;1.03;;;23.40;99.90;;;;;;4992151;28;20552;-68
2023/07/06 15:12:43;;;;;;;0.80;0.80;;;23.10;99.90;;;;;;4992178;28;20838;-69
2023/07/06 15:15:11;;;;;;;1.30;1.30;;;22.90;99.90;;;;;;4991806;28;20909;-67
2023/07/06 15:17:38;;;;;;;1.07;1.00;;;22.80;99.90;;;;;;4991289;28;20499;-68
2023/07/06 15:20:08;;;;;;;0.73;0.70;;;22.80;99.90;;;;;;4992074;28;20471;-69
2023/07/06 15:22:36;;;;;;;1.50;1.50;;;22.70;99.90;;;;;;4991560;28;20480;-69
2023/07/06 15:25:03;;;;;;;1.43;1.43;;;22.50;99.90;;;;;;4991449;28;20527;-67
2023/07/06 15:27:30;;;;;;;1.13;1.13;;;21.70;99.90;;;;;;4991709;28;20884;-67
2023/07/06 15:29:57;;;;;;;1.70;1.70;;;20.90;99.90;;;;;;4991891;28;20794;-68
2023/07/06 15:32:24;;;;;;;1.57;1.47;;;20.40;99.90;;;;;;4992030;28;20462;-68
2023/07/06 15:34:51;;;;;;;1.03;1.03;;;20.00;99.90;;;;;;4991509;28;20479;-68
2023/07/06 15:37:19;;;;;;;1.77;1.77;;;19.50;99.90;;;;;;4991596;28;20467;-68
2023/07/06 15:39:46;;;;;;;1.70;1.70;;;19.30;99.90;;;;;;4991987;28;20470;-69
2023/07/06 15:42:13;;;;;;;1.50;1.50;;;19.00;99.90;;;;;;4989808;28;20462;-68
2023/07/06 15:44:40;;;;;;;2.73;2.27;;;18.70;99.90;;;;;;5004897;28;20479;-68
2023/07/06 15:47:06;;;;;;;3.00;2.80;;;18.30;99.90;;;;;;5011220;28;20818;-68
2023/07/06 15:49:33;;;;;;;4.23;2.40;;;18.20;99.90;;;;;;5011243;28;20980;-68
2023/07/06 15:52:00;;;;;;;4.10;1.83;;;18.00;99.90;;;;;;5010842;28;20466;-70
2023/07/06 15:54:28;;;;;;;2.30;2.30;;;17.90;99.90;;;;;;5010569;28;20485;-69
2023/07/06 15:56:55;;;;;;;3.10;1.90;;;17.70;99.90;;;;;;5010780;28;20458;-69
2023/07/06 15:59:21;;;;;;;2.80;2.60;;;17.70;99.90;;;;;;5010984;28;20477;-70
2023/07/06 16:01:49;;;;;;;2.13;2.13;;;17.70;99.90;;;;;;5010158;28;20466;-69
2023/07/06 16:04:16;;;;;;;2.27;2.17;;;17.70;99.90;;;;;;5010474;28;20852;-69
2023/07/06 16:06:43;;;;;;;2.80;2.60;;;17.70;99.90;;;;;;5010528;28;20457;-69
2023/07/06 16:09:10;;;;;;;3.47;2.50;;;17.80;99.90;;;;;;5010582;28;20540;-70
2023/07/06 16:11:38;;;;;;;2.40;2.20;;;17.90;99.90;;;;;;5010785;28;20469;-69
2023/07/06 16:14:06;;;;;;;3.37;3.07;;;18.10;99.90;;;;;;5010583;28;20916;-69
2023/07/06 16:16:33;;;;;;;2.53;2.43;;;18.30;99.90;;;;;;5032441;23;20486;-69
2023/07/06 16:19:00;;;;;;;2.17;2.10;;;18.40;99.90;;;;;;5010871;28;20835;-70
2023/07/06 16:21:27;;;;;;;4.17;3.87;;;18.50;99.90;;;;;;5010858;28;20458;-70
2023/07/06 16:23:53;;;;;;;1.67;1.67;;;18.70;99.90;;;;;;5010744;28;20457;-70
2023/07/06 16:26:22;;;;;;;2.40;1.90;;;18.80;99.90;;;;;;4997734;28;20495;-70
2023/07/06 16:28:52;;;;;;;2.30;2.10;;;19.00;99.90;;;;;;4992711;28;20463;-70
2023/07/06 16:31:20;;;;;;;2.10;2.10;;;19.00;99.90;;;;;;4992129;28;20522;-70
2023/07/06 16:33:47;;;;;;;2.87;2.20;;;19.10;99.90;;;;;;4992130;28;20473;-70
2023/07/06 16:36:14;;;;;;;1.57;1.57;;;19.20;99.90;;;;;;4991514;28;21009;-70
2023/07/06 16:38:41;;;;;;;2.30;2.13;;;19.30;99.90;;;;;;4991937;28;20474;-70
2023/07/06 16:41:10;;;;;;;1.73;1.73;;;19.30;99.90;;;;;;4992455;28;20474;-70
2023/07/06 16:43:37;;;;;;;2.27;2.17;;;19.30;99.90;;;;;;4986176;28;20489;-70
2023/07/06 16:46:06;;;;;;;1.90;1.80;;;19.40;99.90;;;;;;4989863;28;20814;-70
2023/07/06 16:48:33;;;;;;;1.50;1.50;;;19.40;99.90;;;;;;4990879;28;20463;-70
2023/07/06 16:51:00;;;;;;;1.93;1.83;;;19.50;99.90;;;;;;4990634;28;20466;-70
2023/07/06 16:53:28;;;;;;;1.50;1.50;;;19.60;99.90;;;;;;4991078;28;20574;-70
2023/07/06 16:55:55;;;;;;;1.27;1.27;;;19.70;99.90;;;;;;4990939;28;20489;-70
2023/07/06 16:58:22;;;;;;;1.40;1.40;;;19.70;99.90;;;;;;4990699;28;20478;-70
2023/07/06 17:00:49;;;;;;;2.03;1.40;;;19.80;99.90;;;;;;4990720;28;20542;-70